TimeWET,TemperatureF,Dew PointF,Humidity,Sea Level PressureIn,VisibilityMPH,Wind Direction,Wind SpeedMPH,Gust SpeedMPH,PrecipitationIn,Events,Conditions,WindDirDegrees,DateUTC
12:00 AM,64,62,92,30.06,1,SSW,2.3,,,,,210,2012-10-09 00:00:00
12:00 AM,64.4,62.6,94,30.04,1.2,SSW,2.3,-,N/A,,Unknown,210,2012-10-09 00:00:00
2:00 AM,60.8,59.0,94,30.04,1.1,Variable,2.3,-,N/A,,Unknown,0,2012-10-09 02:00:00
3:00 AM,63,60,85,30.04,1,SSW,5.8,,,,,200,2012-10-09 03:00:00
3:00 AM,62.6,59.0,88,30.01,1.1,SSW,5.8,-,N/A,,Unknown,200,2012-10-09 03:00:00
4:00 AM,60.8,59.0,94,30.01,1.6,WNW,1.2,-,N/A,,Unknown,300,2012-10-09 04:00:00
5:00 AM,60.8,57.2,88,30.04,1.2,SSW,5.8,-,N/A,,Unknown,200,2012-10-09 05:00:00
6:00 AM,62,58,82,30.04,1,SSW,8.1,,,,,210,2012-10-09 06:00:00
6:00 AM,60.8,57.2,88,30.04,1.5,SSW,8.1,-,N/A,,Unknown,210,2012-10-09 06:00:00
7:00 AM,60.8,57.2,88,30.04,3.1,SSW,4.6,-,N/A,,Partly Cloudy,200,2012-10-09 07:00:00
8:00 AM,66.2,60.8,83,30.04,5.0,SSW,5.8,-,N/A,,Partly Cloudy,210,2012-10-09 08:00:00
9:00 AM,73,60,54,30.07,5,SSW,4.6,,,,,210,2012-10-09 09:00:00
9:00 AM,73.4,60.8,65,30.06,5.0,SSW,4.6,-,N/A,,Unknown,210,2012-10-09 09:00:00
10:00 AM,80.6,59.0,48,30.06,5.0,SE,3.5,-,N/A,,Unknown,130,2012-10-09 10:00:00
12:00 PM,77,65,59,30.04,6,East,8.1,,,,,80,2012-10-09 12:00:00
12:00 PM,77.0,66.2,69,30.04,-9999.0,East,8.1,-,N/A,,Clear,80,2012-10-09 12:00:00
1:00 PM,77.0,66.2,69,30.01,-9999.0,East,9.2,-,N/A,,Clear,80,2012-10-09 13:00:00
2:00 PM,75.2,66.2,73,30.01,-9999.0,East,9.2,-,N/A,,Clear,80,2012-10-09 14:00:00
6:00 PM,68,66,90,30.00,1,East,3.5,,,,Mist,90,2012-10-09 18:00:00
6:00 PM,68.0,66.2,94,29.98,1.2,East,4.6,-,N/A,,Scattered Clouds,80,2012-10-09 18:00:00
7:00 PM,68.0,66.2,94,29.98,0.3,Variable,2.3,-,N/A,Fog,Fog,0,2012-10-09 19:00:00